Time;durP1;ratioP1;P1;durP2;ratioP2;P2;SDS_P1;SDS_P2;PMS_P1;PMS_P2;Temp;Humidity;BMP_temperature;BMP_pressure;BME280_temperature;BME280_humidity;BME280_pressure;Samples;Min_cycle;Max_cycle;Signal;HPM_P1;HPM_P2
2023/03/12 00:01:36;;;;;;;28.20;27.10;;;10.50;92.20;;;;;;5027153;28;20396;-73
2023/03/12 00:04:03;;;;;;;29.38;28.27;;;10.40;92.10;;;;;;5026031;28;20029;-73
2023/03/12 00:06:28;;;;;;;28.20;27.10;;;10.30;92.10;;;;;;5027265;28;20060;-73
2023/03/12 00:08:54;;;;;;;30.17;28.88;;;10.20;92.10;;;;;;5026771;28;20103;-73
2023/03/12 00:11:20;;;;;;;24.90;23.90;;;10.20;92.20;;;;;;5025709;28;20033;-73
2023/03/12 00:13:57;;;;;;;21.30;20.45;;;10.20;92.50;;;;;;5025667;28;20034;-73
2023/03/12 00:16:23;;;;;;;21.85;20.95;;;10.20;92.30;;;;;;5026327;28;20025;-73
2023/03/12 00:18:51;;;;;;;21.17;20.38;;;10.30;92.30;;;;;;5027321;28;20029;-73
2023/03/12 00:21:17;;;;;;;16.40;15.70;;;10.30;92.20;;;;;;5026052;28;20037;-73
2023/03/12 00:23:45;;;;;;;16.20;15.50;;;10.30;92.20;;;;;;5027130;28;20061;-73
2023/03/12 00:26:12;;;;;;;16.10;15.40;;;10.30;92.20;;;;;;5027119;28;20105;-73
2023/03/12 00:28:38;;;;;;;14.80;14.20;;;10.30;92.20;;;;;;5027556;28;20382;-73
2023/03/12 00:31:17;;;;;;;14.77;14.18;;;10.30;92.20;;;;;;5027123;28;20072;-73
2023/03/12 00:33:43;;;;;;;14.23;13.63;;;10.30;92.20;;;;;;5025940;28;20030;-73
2023/03/12 00:36:09;;;;;;;14.20;13.60;;;10.30;92.20;;;;;;5026999;28;20103;-72
2023/03/12 00:38:35;;;;;;;13.45;12.85;;;10.30;92.20;;;;;;5027033;28;20057;-73
2023/03/12 00:41:01;;;;;;;14.10;13.50;;;10.30;92.20;;;;;;5026949;28;20061;-73
2023/03/12 00:43:27;;;;;;;13.57;12.98;;;10.40;92.20;;;;;;5027075;28;20426;-71
2023/03/12 00:45:52;;;;;;;15.15;14.55;;;10.40;92.20;;;;;;5026936;28;20486;-73
2023/03/12 00:48:18;;;;;;;13.48;12.88;;;10.30;92.20;;;;;;5027057;28;20457;-71
2023/03/12 00:50:44;;;;;;;14.05;13.45;;;10.40;92.20;;;;;;5027031;28;20034;-71
2023/03/12 00:53:10;;;;;;;13.30;12.70;;;10.40;92.20;;;;;;5026922;28;20523;-72
2023/03/12 00:55:35;;;;;;;13.15;12.55;;;10.30;92.20;;;;;;5026779;28;20108;-72
2023/03/12 00:58:01;;;;;;;13.23;12.63;;;10.30;92.20;;;;;;5026852;28;20095;-72
2023/03/12 01:00:27;;;;;;;13.98;13.38;;;10.30;92.20;;;;;;5026510;28;20057;-72
2023/03/12 01:02:52;;;;;;;13.18;12.57;;;10.30;92.10;;;;;;5026729;28;20037;-72
2023/03/12 01:05:18;;;;;;;13.43;12.82;;;10.20;92.20;;;;;;5025754;28;20076;-72
2023/03/12 01:07:44;;;;;;;12.55;11.95;;;10.20;92.20;;;;;;5026618;28;20505;-73
2023/03/12 01:10:13;;;;;;;11.85;11.35;;;10.20;92.20;;;;;;5025619;28;20118;-73
2023/03/12 01:12:39;;;;;;;10.95;10.45;;;10.20;92.20;;;;;;5026888;28;20504;-73
2023/03/12 01:15:05;;;;;;;11.23;10.73;;;10.30;92.20;;;;;;5025561;28;20029;-73
2023/03/12 01:17:30;;;;;;;11.48;10.98;;;10.20;92.20;;;;;;5026673;28;20041;-73
2023/03/12 01:19:56;;;;;;;11.38;10.88;;;10.30;92.20;;;;;;5026845;28;20025;-73
2023/03/12 01:22:22;;;;;;;11.95;11.45;;;10.30;92.20;;;;;;5027909;28;20034;-73
2023/03/12 01:24:48;;;;;;;11.77;11.27;;;10.30;92.20;;;;;;5029211;28;20033;-73
2023/03/12 01:27:13;;;;;;;12.68;12.07;;;10.30;92.20;;;;;;5030512;28;20539;-73
2023/03/12 01:29:39;;;;;;;12.02;11.52;;;10.30;92.20;;;;;;5030422;28;20033;-73
2023/03/12 01:32:05;;;;;;;11.70;11.20;;;10.20;92.20;;;;;;5028884;28;20033;-73
2023/03/12 01:34:32;;;;;;;14.02;13.43;;;10.20;92.20;;;;;;5030204;28;20615;-73
2023/03/12 01:36:58;;;;;;;12.60;12.00;;;10.20;92.20;;;;;;5029990;28;20030;-73
2023/03/12 01:39:24;;;;;;;13.20;12.60;;;10.20;92.20;;;;;;5030082;28;20029;-73
2023/03/12 01:41:50;;;;;;;11.63;11.13;;;10.20;92.20;;;;;;5030010;28;20091;-72
2023/03/12 01:44:16;;;;;;;12.48;11.88;;;10.20;92.20;;;;;;5030286;28;20035;-72
2023/03/12 01:46:44;;;;;;;11.63;11.13;;;10.20;92.20;;;;;;5029964;28;20029;-72
2023/03/12 01:49:30;;;;;;;11.18;10.68;;;10.10;92.20;;;;;;5029951;28;20026;-72
2023/03/12 01:52:09;;;;;;;9.88;9.38;;;10.20;92.20;;;;;;5029949;28;20021;-72
2023/03/12 01:55:03;;;;;;;7.05;6.65;;;10.10;92.20;;;;;;5029718;28;20516;-72
2023/03/12 01:57:50;;;;;;;6.45;6.05;;;10.10;92.20;;;;;;5029675;28;20040;-72
2023/03/12 02:00:21;;;;;;;;;;;10.10;92.20;;;;;;5029967;28;20037;-72
2023/03/12 02:02:48;;;;;;;5.70;5.40;;;10.10;92.20;;;;;;5029564;28;20048;-72
2023/03/12 02:05:42;;;;;;;5.40;5.10;;;10.10;92.10;;;;;;5029625;28;20049;-72
2023/03/12 02:08:12;;;;;;;5.30;5.00;;;10.00;92.10;;;;;;5029681;28;20501;-72
2023/03/12 02:10:38;;;;;;;5.05;4.75;;;9.90;92.10;;;;;;5029818;28;20470;-72
2023/03/12 02:13:04;;;;;;;5.80;5.50;;;9.80;92.10;;;;;;5028187;28;20040;-72
2023/03/12 02:15:30;;;;;;;;;;;9.70;92.10;;;;;;5028519;28;20124;-72
2023/03/12 02:17:56;;;;;;;5.93;5.63;;;9.70;92.20;;;;;;5029440;28;20116;-72
2023/03/12 02:20:33;;;;;;;5.93;5.63;;;9.70;92.20;;;;;;5029137;28;20029;-72
2023/03/12 02:23:09;;;;;;;5.88;5.57;;;9.70;92.20;;;;;;5028991;28;20037;-72
2023/03/12 02:25:38;;;;;;;6.10;5.80;;;9.70;92.20;;;;;;5029148;28;20018;-72
2023/03/12 02:28:08;;;;;;;5.45;5.15;;;9.60;92.20;;;;;;5029250;28;20021;-72
2023/03/12 02:30:35;;;;;;;4.95;4.65;;;9.60;92.20;;;;;;5027876;28;20021;-72
2023/03/12 02:33:05;;;;;;;4.93;4.63;;;9.60;92.20;;;;;;5027625;28;20030;-72
2023/03/12 02:35:31;;;;;;;4.00;3.70;;;9.60;92.30;;;;;;5029045;28;20033;-72
2023/03/12 02:37:57;;;;;;;3.90;3.60;;;9.70;92.30;;;;;;5028972;28;20497;-72
2023/03/12 02:40:42;;;;;;;2.75;2.55;;;9.70;92.20;;;;;;5028996;28;20107;-72
2023/03/12 02:43:10;;;;;;;1.80;1.70;;;9.70;92.20;;;;;;5027607;28;20025;-72
2023/03/12 02:45:37;;;;;;;1.70;1.60;;;9.70;92.20;;;;;;5028883;28;20366;-72
2023/03/12 02:48:04;;;;;;;1.60;1.50;;;9.80;92.30;;;;;;5027423;28;20030;-72
2023/03/12 02:50:29;;;;;;;1.50;1.40;;;9.80;92.20;;;;;;5028687;28;20370;-72
2023/03/12 02:52:55;;;;;;;1.55;1.45;;;9.80;92.20;;;;;;5028725;28;20036;-72
2023/03/12 02:55:21;;;;;;;1.50;1.40;;;9.80;92.20;;;;;;5028571;28;20087;-72
2023/03/12 02:57:46;;;;;;;1.60;1.50;;;9.90;92.20;;;;;;5011086;28;20029;-72
2023/03/12 03:00:13;;;;;;;1.60;1.50;;;9.90;92.20;;;;;;5028431;28;20053;-72
2023/03/12 03:02:40;;;;;;;1.73;1.63;;;9.80;92.10;;;;;;5027148;28;20084;-72
2023/03/12 03:05:07;;;;;;;1.60;1.50;;;9.70;92.10;;;;;;5028415;28;20120;-72
2023/03/12 03:07:32;;;;;;;1.48;1.38;;;9.60;92.10;;;;;;5027152;28;20072;-72
2023/03/12 03:10:02;;;;;;;1.60;1.50;;;9.60;92.10;;;;;;5028509;28;20064;-72
2023/03/12 03:12:32;;;;;;;1.63;1.52;;;9.50;92.10;;;;;;5027256;28;20041;-72
2023/03/12 03:14:58;;;;;;;1.80;1.70;;;9.50;92.10;;;;;;5026982;28;20029;-72
2023/03/12 03:17:25;;;;;;;1.65;1.55;;;9.40;92.20;;;;;;5027005;28;20509;-72
2023/03/12 03:19:51;;;;;;;1.60;1.50;;;9.40;92.20;;;;;;5028218;28;20053;-72
2023/03/12 03:22:18;;;;;;;1.88;1.77;;;9.30;92.20;;;;;;5028113;28;20028;-72
2023/03/12 03:24:45;;;;;;;1.60;1.50;;;9.30;92.20;;;;;;5026916;28;20030;-72
2023/03/12 03:27:11;;;;;;;;;;;9.30;92.20;;;;;;5027183;28;20021;-72
2023/03/12 03:29:37;;;;;;;1.60;1.50;;;9.20;92.20;;;;;;5028119;28;19917;-72
2023/03/12 03:32:03;;;;;;;1.60;1.50;;;9.10;92.10;;;;;;5028144;28;20029;-72
2023/03/12 03:34:29;;;;;;;1.80;1.70;;;9.10;92.20;;;;;;5027983;28;20033;-72
2023/03/12 03:36:54;;;;;;;1.60;1.50;;;9.10;92.20;;;;;;5026757;28;20040;-72
2023/03/12 03:39:20;;;;;;;1.70;1.60;;;9.10;92.20;;;;;;5027896;28;20168;-72
2023/03/12 03:41:46;;;;;;;1.60;1.50;;;9.00;92.10;;;;;;5027761;28;20029;-72
2023/03/12 03:44:13;;;;;;;1.70;1.60;;;9.00;92.10;;;;;;5027214;28;20472;-72
2023/03/12 03:46:38;;;;;;;2.00;1.90;;;9.00;92.20;;;;;;5027683;28;20469;-72
2023/03/12 03:49:05;;;;;;;1.90;1.80;;;9.00;92.10;;;;;;5027755;28;20029;-72
2023/03/12 03:51:31;;;;;;;2.28;2.08;;;8.90;92.10;;;;;;5027777;28;20039;-72
2023/03/12 03:54:01;;;;;;;2.30;2.10;;;8.90;92.10;;;;;;5026429;28;20025;-72
2023/03/12 03:56:27;;;;;;;1.98;1.85;;;8.80;92.10;;;;;;5027555;28;20037;-72
2023/03/12 03:58:53;;;;;;;2.30;2.10;;;8.80;92.10;;;;;;5025843;28;20084;-73
2023/03/12 04:01:19;;;;;;;2.33;2.13;;;8.80;92.10;;;;;;5026682;28;20533;-73
2023/03/12 04:03:45;;;;;;;2.40;2.20;;;8.80;92.10;;;;;;5027818;28;20034;-74
2023/03/12 04:06:12;;;;;;;2.30;2.10;;;8.70;92.10;;;;;;5027933;28;20053;-73
2023/03/12 04:08:38;;;;;;;2.30;2.10;;;8.70;92.10;;;;;;5027947;28;20473;-74
2023/03/12 04:11:16;;;;;;;2.30;2.10;;;8.70;92.10;;;;;;5027908;28;20079;-73
2023/03/12 04:13:42;;;;;;;2.33;2.13;;;8.70;92.10;;;;;;5027854;28;20029;-73
2023/03/12 04:16:08;;;;;;;2.30;2.10;;;8.70;92.10;;;;;;5027665;28;20029;-73
2023/03/12 04:18:37;;;;;;;2.50;2.30;;;8.80;92.20;;;;;;5027845;28;20049;-73
2023/03/12 04:21:05;;;;;;;2.33;2.13;;;8.80;92.20;;;;;;5026621;28;20080;-73
2023/03/12 04:23:31;;;;;;;2.40;2.20;;;8.80;92.10;;;;;;5026387;28;20497;-73
2023/03/12 04:25:56;;;;;;;2.50;2.30;;;8.90;92.10;;;;;;5026264;28;20049;-73
2023/03/12 04:28:22;;;;;;;2.30;2.10;;;8.90;92.10;;;;;;5026243;28;20037;-73
2023/03/12 04:30:58;;;;;;;2.20;2.00;;;9.00;92.10;;;;;;5027743;28;20083;-73
2023/03/12 04:33:24;;;;;;;2.08;1.90;;;9.00;92.10;;;;;;5026285;28;20066;-73
2023/03/12 04:35:53;;;;;;;2.20;2.00;;;9.00;92.10;;;;;;5009691;28;20393;-73
2023/03/12 04:38:21;;;;;;;2.25;2.05;;;9.10;92.10;;;;;;5027416;28;20033;-73
2023/03/12 04:40:47;;;;;;;2.40;2.20;;;9.10;92.10;;;;;;5027593;28;20463;-74
2023/03/12 04:43:13;;;;;;;2.35;2.15;;;9.10;92.10;;;;;;5027318;28;20025;-73
2023/03/12 04:45:39;;;;;;;2.53;2.33;;;9.00;92.00;;;;;;5026335;28;20494;-73
2023/03/12 04:48:05;;;;;;;2.22;2.03;;;9.00;92.00;;;;;;5026195;28;20030;-73
2023/03/12 04:50:30;;;;;;;2.10;1.90;;;8.90;92.00;;;;;;5027389;28;20438;-73
2023/03/12 04:52:56;;;;;;;2.10;1.90;;;8.90;92.00;;;;;;5025971;28;20118;-73
2023/03/12 04:55:22;;;;;;;2.10;1.90;;;8.80;92.10;;;;;;5028248;28;20045;-74
2023/03/12 04:57:48;;;;;;;2.20;2.00;;;8.80;92.10;;;;;;5031102;28;20033;-74
2023/03/12 05:00:14;;;;;;;2.40;2.22;;;8.80;92.10;;;;;;5031088;28;20042;-73
2023/03/12 05:02:40;;;;;;;2.00;1.90;;;8.80;92.10;;;;;;5013288;28;20135;-73
2023/03/12 05:05:06;;;;;;;;;;;8.80;92.10;;;;;;5031602;28;20029;-73
2023/03/12 05:07:32;;;;;;;1.50;1.40;;;8.80;92.20;;;;;;5029915;28;19906;-73
2023/03/12 05:09:58;;;;;;;1.50;1.40;;;8.80;92.10;;;;;;5029857;28;20436;-73
2023/03/12 05:12:23;;;;;;;1.40;1.30;;;8.80;92.20;;;;;;5029672;28;20068;-73
2023/03/12 05:14:49;;;;;;;1.40;1.30;;;8.90;92.20;;;;;;5029608;28;20428;-73
2023/03/12 05:17:15;;;;;;;1.60;1.50;;;8.90;92.20;;;;;;5029607;28;20037;-74
2023/03/12 05:19:41;;;;;;;1.60;1.50;;;9.00;92.20;;;;;;5030915;28;20025;-73
2023/03/12 05:22:06;;;;;;;1.70;1.60;;;9.00;92.20;;;;;;5013095;28;20088;-74
2023/03/12 05:24:32;;;;;;;1.60;1.50;;;9.10;92.20;;;;;;5030867;28;20116;-73
2023/03/12 05:26:58;;;;;;;1.58;1.48;;;9.10;92.20;;;;;;5029417;28;20038;-73
2023/03/12 05:29:23;;;;;;;1.63;1.52;;;9.20;92.20;;;;;;5030754;28;20033;-73
2023/03/12 05:31:49;;;;;;;1.50;1.40;;;9.20;92.20;;;;;;5029742;28;20096;-73
2023/03/12 05:34:15;;;;;;;1.60;1.50;;;9.30;92.20;;;;;;5030484;28;20482;-73
2023/03/12 05:36:41;;;;;;;1.40;1.30;;;9.30;92.10;;;;;;5030507;28;20056;-73
2023/03/12 05:39:06;;;;;;;1.50;1.40;;;9.30;92.10;;;;;;5030661;28;20454;-74
2023/03/12 05:41:32;;;;;;;1.50;1.40;;;9.30;92.10;;;;;;5012911;28;20080;-73
2023/03/12 05:43:58;;;;;;;1.60;1.50;;;9.30;92.20;;;;;;5029048;28;20402;-74
2023/03/12 05:46:26;;;;;;;1.60;1.50;;;9.30;92.20;;;;;;5030080;28;20030;-73
2023/03/12 05:48:52;;;;;;;1.50;1.40;;;9.30;92.20;;;;;;5030249;28;20029;-73
2023/03/12 05:51:18;;;;;;;1.50;1.40;;;9.30;92.10;;;;;;5030269;28;20280;-73
2023/03/12 05:53:44;;;;;;;1.60;1.50;;;9.30;92.20;;;;;;5012508;28;20042;-73
2023/03/12 05:56:15;;;;;;;1.60;1.50;;;9.30;92.20;;;;;;5030078;28;20072;-74
2023/03/12 05:58:41;;;;;;;1.60;1.50;;;9.30;92.20;;;;;;5030340;28;20029;-73
2023/03/12 06:01:18;;;;;;;1.50;1.40;;;9.30;92.20;;;;;;5030066;28;20062;-73
2023/03/12 06:03:45;;;;;;;1.40;1.30;;;9.20;92.10;;;;;;5029957;28;20083;-73
2023/03/12 06:06:11;;;;;;;1.50;1.40;;;9.20;92.20;;;;;;5030114;28;20154;-73
2023/03/12 06:08:37;;;;;;;;;;;9.20;92.20;;;;;;5029678;28;20115;-73
2023/03/12 06:11:03;;;;;;;1.50;1.40;;;9.10;92.20;;;;;;5028771;28;20438;-73
2023/03/12 06:13:29;;;;;;;1.70;1.60;;;9.10;92.10;;;;;;5028740;28;20068;-73
2023/03/12 06:16:00;;;;;;;;;;;9.00;92.10;;;;;;5030114;28;20374;-73
2023/03/12 06:18:26;;;;;;;1.88;1.77;;;9.00;92.10;;;;;;5029634;28;19912;-74
2023/03/12 06:20:51;;;;;;;1.70;1.60;;;9.00;92.20;;;;;;5028427;28;20100;-73
2023/03/12 06:23:17;;;;;;;1.77;1.67;;;8.90;92.20;;;;;;5029680;28;20111;-73
2023/03/12 06:25:44;;;;;;;1.90;1.80;;;9.00;92.20;;;;;;5029709;28;20030;-73
2023/03/12 06:28:10;;;;;;;1.80;1.70;;;9.00;92.10;;;;;;5029553;28;20039;-73
2023/03/12 06:30:35;;;;;;;1.70;1.60;;;8.90;92.10;;;;;;5028371;28;20112;-73
2023/03/12 06:33:03;;;;;;;1.80;1.70;;;8.90;92.10;;;;;;5029511;28;20036;-73
2023/03/12 06:35:29;;;;;;;1.90;1.80;;;8.90;92.10;;;;;;5028010;28;20034;-73
2023/03/12 06:37:55;;;;;;;2.00;1.90;;;8.90;92.10;;;;;;5028499;28;20036;-73
2023/03/12 06:40:20;;;;;;;1.80;1.70;;;8.80;92.10;;;;;;5029357;28;20033;-73
2023/03/12 06:42:46;;;;;;;1.77;1.67;;;8.80;92.10;;;;;;5029278;28;20300;-73
2023/03/12 06:45:12;;;;;;;1.67;1.58;;;8.80;92.10;;;;;;5028047;28;20072;-73
2023/03/12 06:47:38;;;;;;;1.70;1.60;;;8.80;92.10;;;;;;5011429;28;20025;-74
2023/03/12 06:50:04;;;;;;;1.60;1.50;;;8.80;92.10;;;;;;5029191;28;20450;-73
2023/03/12 06:52:29;;;;;;;1.70;1.60;;;8.80;92.10;;;;;;5029171;28;20030;-73
2023/03/12 06:54:55;;;;;;;1.83;1.73;;;8.70;92.10;;;;;;5029072;28;20046;-73
2023/03/12 06:57:21;;;;;;;1.70;1.60;;;8.80;92.10;;;;;;5027651;28;20354;-74
2023/03/12 06:59:46;;;;;;;1.70;1.60;;;8.80;92.10;;;;;;5028977;28;20099;-73
2023/03/12 07:02:12;;;;;;;1.70;1.60;;;8.80;92.10;;;;;;5027453;28;20053;-73
2023/03/12 07:04:38;;;;;;;1.67;1.58;;;8.80;92.20;;;;;;5011250;28;20040;-73
2023/03/12 07:07:03;;;;;;;1.70;1.60;;;8.80;92.10;;;;;;5028823;28;20087;-73
2023/03/12 07:09:29;;;;;;;1.70;1.60;;;8.90;92.10;;;;;;5028917;28;20057;-73
2023/03/12 07:11:55;;;;;;;1.65;1.55;;;8.90;92.10;;;;;;5028573;28;20044;-73
2023/03/12 07:14:21;;;;;;;1.60;1.50;;;8.90;92.10;;;;;;5028557;28;20059;-73
2023/03/12 07:16:47;;;;;;;1.60;1.50;;;9.00;92.10;;;;;;5028407;28;20389;-73
2023/03/12 07:19:13;;;;;;;1.50;1.40;;;9.00;92.10;;;;;;5027686;28;20029;-74
2023/03/12 07:21:38;;;;;;;1.50;1.40;;;9.00;92.10;;;;;;5028602;28;20025;-73
2023/03/12 07:24:08;;;;;;;1.60;1.50;;;9.00;92.10;;;;;;5029013;28;20035;-73
2023/03/12 07:26:34;;;;;;;1.40;1.30;;;9.00;92.20;;;;;;5028255;28;20324;-73
2023/03/12 07:29:01;;;;;;;1.40;1.30;;;9.00;92.10;;;;;;5028486;28;20042;-73
2023/03/12 07:31:27;;;;;;;1.60;1.50;;;9.10;92.20;;;;;;5028502;28;20532;-74
2023/03/12 07:33:52;;;;;;;1.50;1.40;;;9.20;92.20;;;;;;5028337;28;20037;-74
2023/03/12 07:36:18;;;;;;;1.50;1.40;;;9.20;92.20;;;;;;5028231;28;20041;-73
2023/03/12 07:38:44;;;;;;;1.67;1.58;;;9.30;92.20;;;;;;5028271;28;20433;-73
2023/03/12 07:41:09;;;;;;;1.40;1.30;;;9.30;92.10;;;;;;5026961;28;20043;-73
2023/03/12 07:43:35;;;;;;;1.50;1.40;;;9.30;92.10;;;;;;5026896;28;20504;-74
2023/03/12 07:46:01;;;;;;;1.40;1.30;;;9.40;92.20;;;;;;5027118;28;20596;-74
2023/03/12 07:48:27;;;;;;;1.50;1.40;;;9.40;92.20;;;;;;5026856;28;20080;-73
2023/03/12 07:50:52;;;;;;;1.70;1.60;;;9.40;92.10;;;;;;5028212;28;20315;-73
2023/03/12 07:53:18;;;;;;;1.52;1.42;;;9.40;92.10;;;;;;5027839;28;20284;-73
2023/03/12 07:55:45;;;;;;;1.40;1.30;;;9.40;92.10;;;;;;5026346;28;20026;-74
2023/03/12 07:58:11;;;;;;;1.55;1.45;;;9.40;92.10;;;;;;5026495;28;20496;-74
2023/03/12 08:00:37;;;;;;;1.50;1.40;;;9.50;92.20;;;;;;5027354;28;20041;-73
2023/03/12 08:03:03;;;;;;;1.40;1.30;;;9.50;92.20;;;;;;5026789;28;20070;-73
2023/03/12 08:05:29;;;;;;;1.50;1.40;;;9.60;92.20;;;;;;5027998;28;20025;-73
2023/03/12 08:07:55;;;;;;;1.30;1.20;;;9.70;92.20;;;;;;5028251;28;20218;-73
2023/03/12 08:10:22;;;;;;;1.30;1.20;;;9.80;92.30;;;;;;5027951;28;20025;-73
2023/03/12 08:12:49;;;;;;;1.10;1.10;;;9.80;92.20;;;;;;5027887;28;20033;-73
2023/03/12 08:15:15;;;;;;;1.10;1.10;;;9.90;92.20;;;;;;5027777;28;20036;-73
2023/03/12 08:17:41;;;;;;;1.10;1.10;;;9.90;92.20;;;;;;5028019;28;20389;-73
2023/03/12 08:20:09;;;;;;;1.10;1.10;;;10.00;92.20;;;;;;5026474;28;20036;-73
2023/03/12 08:22:36;;;;;;;1.00;1.00;;;10.10;92.20;;;;;;5027978;28;20119;-73
2023/03/12 08:25:02;;;;;;;0.90;0.90;;;10.10;92.20;;;;;;5027704;28;20164;-73
2023/03/12 08:27:27;;;;;;;;;;;10.20;92.20;;;;;;5027859;28;20026;-73
2023/03/12 08:29:53;;;;;;;1.00;1.00;;;10.30;92.30;;;;;;5026606;28;20384;-73
2023/03/12 08:32:19;;;;;;;0.90;0.90;;;10.30;92.20;;;;;;5031727;28;20397;-73
2023/03/12 08:34:44;;;;;;;0.90;0.90;;;10.30;92.20;;;;;;5030264;28;20045;-73
2023/03/12 08:37:10;;;;;;;0.90;0.90;;;10.40;92.20;;;;;;5029756;28;20025;-73
2023/03/12 08:39:36;;;;;;;1.25;1.10;;;10.40;92.20;;;;;;5030204;28;20123;-74
2023/03/12 08:42:02;;;;;;;0.98;0.98;;;10.40;92.20;;;;;;5031470;28;20124;-74
2023/03/12 08:44:28;;;;;;;0.90;0.90;;;10.40;92.20;;;;;;5031271;28;20068;-73
2023/03/12 08:46:54;;;;;;;0.90;0.90;;;10.40;92.20;;;;;;5031253;28;20037;-74
2023/03/12 08:49:20;;;;;;;1.23;1.10;;;10.40;92.20;;;;;;5031370;28;20036;-74
2023/03/12 08:51:46;;;;;;;;;;;10.50;92.20;;;;;;5030125;28;20059;-74
2023/03/12 08:54:12;;;;;;;0.80;0.80;;;10.60;92.30;;;;;;5031730;28;19936;-73
2023/03/12 08:56:41;;;;;;;0.80;0.80;;;10.80;92.50;;;;;;5029509;28;20029;-74
2023/03/12 08:59:11;;;;;;;0.70;0.70;;;11.30;93.10;;;;;;5013685;28;20034;-73
2023/03/12 09:01:37;;;;;;;0.70;0.70;;;12.20;93.20;;;;;;5031319;28;20072;-73
2023/03/12 09:04:03;;;;;;;;;;;12.90;93.00;;;;;;5031403;28;20033;-74
2023/03/12 09:06:28;;;;;;;0.40;0.40;;;13.60;92.90;;;;;;5030943;28;19921;-74
2023/03/12 09:08:54;;;;;;;0.50;0.50;;;13.90;92.30;;;;;;5030837;28;20029;-74
2023/03/12 09:11:20;;;;;;;0.50;0.50;;;13.90;92.10;;;;;;5029191;28;20482;-73
2023/03/12 09:13:45;;;;;;;0.47;0.47;;;13.90;92.00;;;;;;5030863;28;20040;-74
2023/03/12 09:16:11;;;;;;;0.40;0.40;;;13.70;92.10;;;;;;5029600;28;20132;-73
2023/03/12 09:18:37;;;;;;;0.30;0.30;;;13.80;92.30;;;;;;5029480;28;20552;-74
2023/03/12 09:21:03;;;;;;;0.40;0.40;;;13.80;92.20;;;;;;5030572;28;20037;-73
2023/03/12 09:23:29;;;;;;;0.30;0.30;;;13.80;92.20;;;;;;5028879;28;20159;-73
2023/03/12 09:25:55;;;;;;;0.30;0.30;;;13.70;92.20;;;;;;5030177;28;20038;-73
2023/03/12 09:28:21;;;;;;;0.30;0.30;;;13.60;92.20;;;;;;5029926;28;20021;-73
2023/03/12 09:30:46;;;;;;;0.20;0.20;;;13.70;92.40;;;;;;5029446;28;20461;-73
2023/03/12 09:33:14;;;;;;;0.20;0.20;;;13.70;92.30;;;;;;5030941;28;20033;-71
2023/03/12 09:35:40;;;;;;;0.20;0.20;;;13.60;92.10;;;;;;5029869;28;20124;-72
2023/03/12 09:38:07;;;;;;;0.20;0.20;;;13.30;92.20;;;;;;5029816;28;20021;-72
2023/03/12 09:40:36;;;;;;;;;;;13.10;92.10;;;;;;5030140;28;20385;-75
2023/03/12 09:43:07;;;;;;;0.20;0.20;;;13.00;92.20;;;;;;5027042;28;20438;-72
2023/03/12 09:45:38;;;;;;;0.20;0.20;;;13.00;92.40;;;;;;5029720;28;20071;-73
2023/03/12 09:48:06;;;;;;;0.20;0.20;;;13.00;92.60;;;;;;5029961;28;20040;-73
2023/03/12 09:50:42;;;;;;;0.10;0.10;;;13.40;92.80;;;;;;5029701;28;20026;-73
2023/03/12 09:53:36;;;;;;;0.10;0.10;;;13.60;92.60;;;;;;5028507;28;20485;-73
2023/03/12 09:56:09;;;;;;;0.20;0.20;;;13.60;92.40;;;;;;5029483;28;20268;-72
2023/03/12 09:58:37;;;;;;;0.30;0.30;;;13.80;92.50;;;;;;5029387;28;20109;-73
2023/03/12 10:01:19;;;;;;;0.10;0.10;;;14.30;93.20;;;;;;5028905;28;20401;-73
2023/03/12 10:03:57;;;;;;;0.10;0.10;;;15.60;93.90;;;;;;5029313;28;20029;-74
2023/03/12 10:06:28;;;;;;;0.00;0.00;;;17.40;94.00;;;;;;5029297;28;20086;-73
2023/03/12 10:09:25;;;;;;;0.05;0.05;;;18.40;93.50;;;;;;5029306;28;20603;-74
2023/03/12 10:12:02;;;;;;;0.00;0.00;;;19.40;93.40;;;;;;5028691;28;20091;-73
2023/03/12 10:14:54;;;;;;;0.00;0.00;;;20.10;93.10;;;;;;5028067;28;20405;-73
2023/03/12 10:17:29;;;;;;;0.00;0.00;;;20.50;92.80;;;;;;5005179;28;20054;-73
2023/03/12 10:20:23;;;;;;;0.00;0.00;;;20.90;92.90;;;;;;5028906;28;20029;-74
2023/03/12 10:23:28;;;;;;;0.00;0.00;;;21.30;92.70;;;;;;5028861;28;20025;-74
2023/03/12 10:26:08;;;;;;;0.00;0.00;;;21.20;92.50;;;;;;5026547;28;20324;-74
2023/03/12 10:28:57;;;;;;;0.00;0.00;;;21.40;92.60;;;;;;5028382;28;20033;-74
2023/03/12 10:31:40;;;;;;;0.13;0.10;;;21.30;92.40;;;;;;5028487;28;20021;-74
2023/03/12 10:34:19;;;;;;;0.10;0.10;;;21.10;92.40;;;;;;5028952;28;20049;-73
2023/03/12 10:36:45;;;;;;;0.00;0.00;;;20.80;92.60;;;;;;5028524;28;20025;-73
2023/03/12 10:39:17;;;;;;;0.00;0.00;;;20.80;92.60;;;;;;5028514;28;20408;-75
2023/03/12 10:41:45;;;;;;;0.75;0.15;;;20.30;92.10;;;;;;5028230;28;20032;-74
2023/03/12 10:44:18;;;;;;;0.00;0.00;;;19.80;92.70;;;;;;5028153;28;20080;-73
2023/03/12 10:46:58;;;;;;;0.00;0.00;;;19.60;92.50;;;;;;5028110;28;20022;-73
2023/03/12 10:49:30;;;;;;;0.00;0.00;;;19.20;92.40;;;;;;5028031;28;20104;-73
2023/03/12 10:52:06;;;;;;;0.00;0.00;;;18.90;92.70;;;;;;5027894;28;20531;-73
2023/03/12 10:54:36;;;;;;;0.00;0.00;;;18.80;93.00;;;;;;5027942;28;20117;-73
2023/03/12 10:57:02;;;;;;;0.00;0.00;;;18.70;92.70;;;;;;5027843;28;20064;-73
2023/03/12 10:59:34;;;;;;;0.00;0.00;;;18.50;92.70;;;;;;5027622;28;20533;-73
2023/03/12 11:02:00;;;;;;;0.00;0.00;;;18.30;92.60;;;;;;5027519;28;20060;-73
2023/03/12 11:04:32;;;;;;;0.00;0.00;;;18.00;92.70;;;;;;5027713;28;20023;-74
2023/03/12 11:07:27;;;;;;;0.00;0.00;;;17.80;92.60;;;;;;5028058;28;20140;-73
2023/03/12 11:10:06;;;;;;;0.00;0.00;;;17.60;92.70;;;;;;5014555;28;20088;-73
2023/03/12 11:12:34;;;;;;;0.00;0.00;;;17.50;92.60;;;;;;5025856;28;20037;-72
2023/03/12 11:15:20;;;;;;;0.00;0.00;;;17.40;92.70;;;;;;5027097;28;20568;-73
2023/03/12 11:17:47;;;;;;;0.00;0.00;;;17.50;92.90;;;;;;5027867;28;20022;-73
2023/03/12 11:20:29;;;;;;;0.00;0.00;;;17.60;92.80;;;;;;5027659;28;20026;-73
2023/03/12 11:22:55;;;;;;;0.00;0.00;;;17.80;93.00;;;;;;5027185;28;20508;-73
2023/03/12 11:25:24;;;;;;;0.73;0.10;;;18.00;93.00;;;;;;5025649;28;20034;-73
2023/03/12 11:27:54;;;;;;;0.00;0.00;;;18.10;92.80;;;;;;5027267;28;20408;-73
2023/03/12 11:30:35;;;;;;;0.00;0.00;;;18.20;93.00;;;;;;5027029;28;20121;-73
2023/03/12 11:33:02;;;;;;;0.00;0.00;;;18.30;92.70;;;;;;5027096;28;20021;-73
2023/03/12 11:36:02;;;;;;;0.00;0.00;;;18.20;92.60;;;;;;5025716;28;20037;-73
2023/03/12 11:39:01;;;;;;;0.00;0.00;;;18.00;92.50;;;;;;5027282;28;20029;-73
2023/03/12 11:41:41;;;;;;;0.00;0.00;;;17.70;92.40;;;;;;5026892;28;20108;-73
2023/03/12 11:44:23;;;;;;;0.00;0.00;;;17.50;92.40;;;;;;5027189;28;20026;-73
2023/03/12 11:47:10;;;;;;;1.55;0.13;;;17.10;92.30;;;;;;5027027;28;20029;-75
2023/03/12 11:50:00;;;;;;;0.00;0.00;;;16.80;92.30;;;;;;5026652;28;20079;-73
2023/03/12 11:52:47;;;;;;;0.00;0.00;;;16.60;92.40;;;;;;5026893;28;20025;-73
2023/03/12 11:55:57;;;;;;;0.15;0.08;;;16.30;92.40;;;;;;5026713;28;20100;-72
2023/03/12 11:58:49;;;;;;;0.00;0.00;;;16.20;92.60;;;;;;5026978;28;20032;-73
2023/03/12 12:01:38;;;;;;;0.00;0.00;;;16.30;92.90;;;;;;5024763;28;20536;-72
2023/03/12 12:04:12;;;;;;;0.00;0.00;;;16.60;92.70;;;;;;5026488;28;20099;-72
2023/03/12 12:06:38;;;;;;;0.00;0.00;;;16.60;92.60;;;;;;5026121;28;20079;-72
2023/03/12 12:09:36;;;;;;;0.00;0.00;;;16.50;92.40;;;;;;5026521;28;20029;-72
2023/03/12 12:12:05;;;;;;;0.17;0.13;;;16.40;92.40;;;;;;5026899;28;20036;-72
2023/03/12 12:14:43;;;;;;;0.00;0.00;;;16.30;92.40;;;;;;5025309;28;20039;-72
2023/03/12 12:17:40;;;;;;;0.00;0.00;;;16.30;92.40;;;;;;5026029;28;20025;-72
2023/03/12 12:20:40;;;;;;;0.00;0.00;;;16.10;92.30;;;;;;5026188;28;20021;-72
2023/03/12 12:23:16;;;;;;;0.00;0.00;;;16.10;92.40;;;;;;5025991;28;20068;-72
2023/03/12 12:26:00;;;;;;;0.00;0.00;;;16.10;92.40;;;;;;5026373;28;20022;-72
2023/03/12 12:28:29;;;;;;;0.00;0.00;;;16.00;92.30;;;;;;5026255;28;20097;-72
2023/03/12 12:31:39;;;;;;;0.00;0.00;;;16.00;92.30;;;;;;5026321;28;20017;-74
2023/03/12 12:34:25;;;;;;;0.00;0.00;;;15.90;92.40;;;;;;5010793;28;20120;-74
2023/03/12 12:37:14;;;;;;;0.00;0.00;;;15.90;92.30;;;;;;5026136;28;20018;-71
2023/03/12 12:40:25;;;;;;;0.00;0.00;;;15.80;92.30;;;;;;5025967;28;20059;-74
2023/03/12 12:43:01;;;;;;;0.00;0.00;;;15.70;92.30;;;;;;5023464;28;20037;-74
2023/03/12 12:45:28;;;;;;;0.00;0.00;;;15.60;92.30;;;;;;5026350;28;20021;-75
2023/03/12 12:48:02;;;;;;;;;;;15.60;92.40;;;;;;5026623;28;20112;-74
2023/03/12 12:50:32;;;;;;;0.00;0.00;;;15.60;92.40;;;;;;5026088;28;19924;-74
2023/03/12 12:53:12;;;;;;;0.00;0.00;;;15.60;92.40;;;;;;5026318;28;20134;-74
2023/03/12 12:55:54;;;;;;;0.00;0.00;;;15.50;92.30;;;;;;5026249;28;20018;-74
2023/03/12 12:58:29;;;;;;;0.00;0.00;;;15.50;92.30;;;;;;5025734;28;20103;-74
2023/03/12 13:01:00;;;;;;;0.00;0.00;;;15.50;92.40;;;;;;5025817;28;20045;-75
2023/03/12 13:03:28;;;;;;;0.00;0.00;;;15.60;92.50;;;;;;5025857;28;20030;-75
2023/03/12 13:06:03;;;;;;;0.00;0.00;;;15.60;92.40;;;;;;5026002;28;20026;-74